Time;durP1;ratioP1;P1;durP2;ratioP2;P2;SDS_P1;SDS_P2;PMS_P1;PMS_P2;Temp;Humidity;BMP_temperature;BMP_pressure;BME280_temperature;BME280_humidity;BME280_pressure;Samples;Min_cycle;Max_cycle;Signal;HPM_P1;HPM_P2
2023/01/30 00:01:36;;;;;;;37.07;24.70;;;5.70;99.90;;;;;;5089169;28;20216;-79
2023/01/30 00:04:04;;;;;;;40.63;26.13;;;5.80;99.90;;;;;;5097888;28;20224;-80
2023/01/30 00:06:31;;;;;;;36.17;25.60;;;5.70;99.90;;;;;;5098830;28;20231;-82
2023/01/30 00:09:01;;;;;;;38.47;24.70;;;5.70;99.90;;;;;;5094563;28;20698;-81
2023/01/30 00:11:34;;;;;;;36.17;23.53;;;5.70;99.90;;;;;;5090517;28;20212;-82
2023/01/30 00:14:03;;;;;;;35.90;24.63;;;5.60;99.90;;;;;;5102229;28;20212;-79
2023/01/30 00:16:30;;;;;;;36.27;25.33;;;5.60;99.90;;;;;;5100547;28;20253;-82
2023/01/30 00:18:57;;;;;;;37.20;24.43;;;5.70;99.90;;;;;;5101666;28;20205;-82
2023/01/30 00:21:24;;;;;;;38.20;24.77;;;5.60;99.90;;;;;;5100766;28;20205;-84
2023/01/30 00:23:51;;;;;;;37.33;25.40;;;5.60;99.90;;;;;;5101342;28;20304;-79
2023/01/30 00:26:19;;;;;;;39.10;24.83;;;5.60;99.90;;;;;;5099687;28;20202;-80
2023/01/30 00:28:46;;;;;;;35.77;24.47;;;5.60;99.90;;;;;;5104118;28;20260;-81
2023/01/30 00:31:15;;;;;;;34.13;24.40;;;5.70;99.90;;;;;;5102967;28;20209;-81
2023/01/30 00:33:44;;;;;;;39.17;26.03;;;5.70;99.90;;;;;;5101964;28;20229;-80
2023/01/30 00:36:13;;;;;;;38.13;24.87;;;5.70;99.90;;;;;;5102605;28;20277;-77
2023/01/30 00:38:39;;;;;;;34.30;24.00;;;5.80;99.90;;;;;;5102836;28;20217;-78
2023/01/30 00:41:06;;;;;;;34.13;23.43;;;5.80;99.90;;;;;;5101721;28;20213;-77
2023/01/30 00:49:11;;;;;;;36.10;24.13;;;5.80;99.90;;;;;;5100826;28;20215;-76
2023/01/30 00:51:39;;;;;;;34.20;23.70;;;5.80;99.90;;;;;;5090238;28;20653;-80
2023/01/30 00:54:06;;;;;;;32.67;23.13;;;5.80;99.90;;;;;;5094132;28;20205;-77
2023/01/30 00:56:33;;;;;;;37.40;23.83;;;5.80;99.90;;;;;;5098728;28;20577;-77
2023/01/30 00:59:00;;;;;;;37.10;23.87;;;5.90;99.90;;;;;;5102185;28;20209;-78
2023/01/30 01:01:30;;;;;;;32.33;22.93;;;6.00;99.90;;;;;;5102670;28;20209;-81
2023/01/30 01:04:05;;;;;;;36.23;21.67;;;6.00;99.90;;;;;;5102608;28;20695;-81
2023/01/30 01:06:32;;;;;;;29.37;22.03;;;6.00;99.90;;;;;;5102589;28;20272;-85
2023/01/30 01:09:00;;;;;;;30.50;21.93;;;6.10;99.90;;;;;;5100840;28;20207;-79
2023/01/30 01:11:26;;;;;;;31.63;21.20;;;6.10;99.90;;;;;;5101180;28;20212;-76
2023/01/30 01:13:55;;;;;;;33.60;21.70;;;6.10;99.90;;;;;;5100587;28;20208;-78
2023/01/30 01:16:26;;;;;;;31.27;21.63;;;6.10;99.90;;;;;;5089982;28;20676;-81
2023/01/30 01:18:54;;;;;;;31.33;21.90;;;6.20;99.90;;;;;;5100758;28;20208;-76
2023/01/30 01:21:27;;;;;;;30.40;20.53;;;6.30;99.90;;;;;;5101775;28;20233;-76
2023/01/30 01:24:01;;;;;;;30.97;20.37;;;6.30;99.90;;;;;;5103095;28;20264;-80
2023/01/30 01:26:37;;;;;;;33.37;20.37;;;6.30;99.90;;;;;;5102315;28;20201;-79
2023/01/30 01:29:04;;;;;;;33.20;20.37;;;6.30;99.90;;;;;;5101601;28;20212;-77
2023/01/30 01:31:31;;;;;;;34.47;21.17;;;6.30;99.90;;;;;;5100500;28;20206;-77
2023/01/30 01:34:01;;;;;;;27.10;18.67;;;6.30;99.90;;;;;;5097315;28;20201;-79
2023/01/30 01:36:28;;;;;;;27.33;19.13;;;6.30;99.90;;;;;;5103896;28;20212;-77
2023/01/30 01:38:57;;;;;;;23.60;18.67;;;6.30;99.90;;;;;;5103462;28;20241;-77
2023/01/30 01:41:23;;;;;;;27.50;17.50;;;6.30;99.90;;;;;;5102512;28;20224;-77
2023/01/30 01:44:05;;;;;;;26.67;18.03;;;6.40;99.90;;;;;;5101401;28;20236;-78
2023/01/30 01:46:36;;;;;;;20.87;15.43;;;6.50;99.90;;;;;;5102650;28;20342;-77
2023/01/30 01:49:07;;;;;;;23.13;15.67;;;6.60;99.90;;;;;;5104336;28;20227;-78
2023/01/30 01:51:41;;;;;;;22.80;14.73;;;6.60;99.90;;;;;;5100563;28;20688;-76
2023/01/30 01:54:12;;;;;;;24.80;14.27;;;6.70;99.90;;;;;;5100515;28;20186;-81
2023/01/30 01:56:43;;;;;;;20.77;13.67;;;6.70;99.90;;;;;;5097653;28;20197;-76
2023/01/30 01:59:16;;;;;;;18.80;13.13;;;6.70;99.90;;;;;;5097302;28;20193;-78
2023/01/30 02:01:43;;;;;;;17.97;13.93;;;6.80;99.90;;;;;;5097525;28;20206;-77
2023/01/30 02:05:00;;;;;;;18.47;13.77;;;6.80;99.90;;;;;;5097520;28;20224;-79
2023/01/30 02:07:01;;;;;;;23.47;14.07;;;6.80;99.90;;;;;;5100920;28;20200;-79
2023/01/30 02:09:28;;;;;;;22.40;14.13;;;6.80;99.90;;;;;;5098293;28;20201;-76
2023/01/30 02:12:00;;;;;;;18.80;13.23;;;6.90;99.90;;;;;;5098468;28;20201;-77
2023/01/30 02:14:33;;;;;;;17.80;13.43;;;6.90;99.90;;;;;;5095944;28;20208;-79
2023/01/30 02:17:00;;;;;;;18.03;13.33;;;6.80;99.90;;;;;;5096848;28;20226;-77
2023/01/30 02:19:40;;;;;;;20.30;13.87;;;6.80;99.90;;;;;;5096874;28;20256;-80
2023/01/30 02:22:32;;;;;;;19.60;13.90;;;6.80;99.90;;;;;;5097022;28;20201;-79
2023/01/30 02:25:19;;;;;;;19.07;13.77;;;6.70;99.90;;;;;;5099826;28;20599;-81
2023/01/30 02:28:25;;;;;;;20.67;13.50;;;6.90;99.90;;;;;;5101837;28;20207;-78
2023/01/30 02:31:27;;;;;;;24.00;13.63;;;6.80;99.90;;;;;;5086984;28;20213;-80
2023/01/30 02:34:17;;;;;;;18.27;13.17;;;6.80;99.90;;;;;;5092181;28;20840;-80
2023/01/30 02:36:59;;;;;;;18.23;13.97;;;6.90;99.90;;;;;;5099732;28;20201;-78
2023/01/30 02:39:39;;;;;;;20.93;13.70;;;6.80;99.90;;;;;;5099372;28;20207;-77
2023/01/30 02:42:19;;;;;;;22.23;14.50;;;6.70;99.90;;;;;;5100662;28;20341;-77
2023/01/30 02:44:55;;;;;;;21.17;13.93;;;6.60;99.90;;;;;;5100112;28;20714;-76
2023/01/30 02:47:30;;;;;;;22.70;14.53;;;6.70;99.90;;;;;;5099109;28;20196;-80
2023/01/30 02:50:02;;;;;;;22.33;14.60;;;6.70;99.90;;;;;;5099027;28;20287;-79
2023/01/30 02:52:30;;;;;;;22.53;13.87;;;6.70;99.90;;;;;;5100505;28;20562;-79
2023/01/30 02:54:57;;;;;;;18.33;13.00;;;6.70;99.90;;;;;;5099506;28;20221;-80
2023/01/30 02:57:27;;;;;;;19.00;13.20;;;6.60;99.90;;;;;;5098265;28;20240;-76
2023/01/30 02:59:57;;;;;;;18.63;13.47;;;6.70;99.90;;;;;;5098941;28;20554;-78
2023/01/30 03:02:49;;;;;;;17.90;12.33;;;6.80;99.90;;;;;;5098216;28;20216;-77
2023/01/30 03:05:41;;;;;;;22.73;13.63;;;6.90;99.90;;;;;;5101256;28;20217;-81
2023/01/30 03:08:20;;;;;;;18.03;12.30;;;6.80;99.90;;;;;;5101136;28;20212;-77
2023/01/30 03:10:54;;;;;;;19.07;13.43;;;6.80;99.90;;;;;;5102691;28;20208;-80
2023/01/30 03:13:31;;;;;;;19.73;13.37;;;6.80;99.90;;;;;;5105181;28;20204;-78
2023/01/30 03:16:03;;;;;;;22.00;14.23;;;6.70;99.90;;;;;;5102445;28;20219;-79
2023/01/30 03:18:34;;;;;;;17.67;12.33;;;6.70;99.90;;;;;;5104722;28;20201;-77
2023/01/30 03:21:04;;;;;;;17.23;12.93;;;6.70;99.90;;;;;;5104278;28;20236;-77
2023/01/30 03:23:33;;;;;;;17.90;11.80;;;6.80;99.90;;;;;;5103133;28;20200;-79
2023/01/30 03:26:03;;;;;;;16.33;11.30;;;6.80;99.90;;;;;;5103147;28;20197;-80
2023/01/30 03:28:30;;;;;;;18.73;11.07;;;6.90;99.90;;;;;;5103048;28;20205;-77
2023/01/30 03:30:57;;;;;;;15.97;10.77;;;6.90;99.90;;;;;;5102999;28;20205;-76
2023/01/30 03:33:26;;;;;;;20.13;11.53;;;7.00;99.90;;;;;;5104389;28;20205;-78
2023/01/30 03:35:56;;;;;;;18.20;10.67;;;7.00;99.90;;;;;;5102445;28;20268;-78
2023/01/30 03:38:25;;;;;;;19.10;9.43;;;7.10;99.90;;;;;;5101821;28;20197;-77
2023/01/30 03:40:52;;;;;;;14.97;9.83;;;7.10;99.90;;;;;;5103928;28;20205;-79
2023/01/30 03:43:19;;;;;;;16.97;10.07;;;7.00;99.90;;;;;;5104837;28;20185;-78
2023/01/30 03:45:46;;;;;;;20.07;9.07;;;7.00;99.90;;;;;;5104135;28;20228;-78
2023/01/30 03:48:13;;;;;;;12.70;10.13;;;6.90;99.90;;;;;;5103934;28;20194;-79
2023/01/30 03:50:42;;;;;;;12.93;9.60;;;6.90;99.90;;;;;;5102183;28;20208;-82
2023/01/30 03:53:14;;;;;;;15.10;8.50;;;6.90;99.90;;;;;;5103507;28;20546;-77
2023/01/30 03:55:41;;;;;;;16.23;8.63;;;6.80;99.90;;;;;;5101163;28;20542;-79
2023/01/30 03:58:08;;;;;;;18.27;8.27;;;7.00;99.90;;;;;;5100208;28;20194;-78
2023/01/30 04:00:35;;;;;;;17.80;8.63;;;6.90;99.90;;;;;;5101300;28;20211;-75
2023/01/30 04:03:02;;;;;;;13.67;7.63;;;6.90;99.90;;;;;;5104146;28;20216;-78
2023/01/30 04:05:29;;;;;;;16.80;8.70;;;6.90;99.90;;;;;;5103276;28;20229;-77
2023/01/30 04:07:57;;;;;;;12.10;6.80;;;6.90;99.90;;;;;;5102683;28;20193;-79
2023/01/30 04:10:26;;;;;;;10.90;6.97;;;7.10;99.90;;;;;;5104562;28;20659;-76
2023/01/30 04:12:55;;;;;;;13.13;7.67;;;7.00;99.90;;;;;;5102574;28;20265;-78
2023/01/30 04:15:21;;;;;;;17.57;6.70;;;7.00;99.90;;;;;;5104434;28;20202;-76
2023/01/30 04:17:49;;;;;;;14.20;7.17;;;7.00;99.90;;;;;;5101812;28;20264;-79
2023/01/30 04:20:16;;;;;;;16.60;7.93;;;7.10;99.90;;;;;;5100452;28;20205;-78
2023/01/30 04:22:45;;;;;;;12.20;7.10;;;7.10;99.90;;;;;;5102231;28;20205;-80
2023/01/30 04:25:14;;;;;;;14.33;7.13;;;7.10;99.90;;;;;;5101483;28;20300;-79
2023/01/30 04:27:43;;;;;;;13.30;7.27;;;7.10;99.90;;;;;;5100814;28;20277;-76
2023/01/30 04:30:18;;;;;;;11.03;6.67;;;7.10;99.90;;;;;;5102670;28;20299;-77
2023/01/30 04:32:46;;;;;;;10.90;6.03;;;7.10;99.90;;;;;;5100861;28;20227;-78
2023/01/30 04:35:13;;;;;;;15.03;7.07;;;7.20;99.90;;;;;;5102705;28;20189;-79
2023/01/30 04:37:40;;;;;;;13.37;6.17;;;7.20;99.90;;;;;;5102517;28;20296;-78
2023/01/30 04:40:10;;;;;;;13.00;6.13;;;7.30;99.90;;;;;;5100910;28;20209;-79
2023/01/30 04:42:40;;;;;;;9.87;6.07;;;7.20;99.90;;;;;;5101862;28;20211;-78
2023/01/30 04:45:12;;;;;;;15.20;6.07;;;7.20;99.90;;;;;;5102852;28;20694;-79
2023/01/30 04:47:38;;;;;;;15.13;6.80;;;7.20;99.90;;;;;;5101303;28;20215;-78
2023/01/30 04:50:06;;;;;;;13.17;7.10;;;7.30;99.90;;;;;;5101303;28;20220;-78
2023/01/30 04:52:39;;;;;;;11.43;5.70;;;7.30;99.90;;;;;;5100290;28;20220;-78
2023/01/30 04:55:08;;;;;;;10.20;5.43;;;7.30;99.90;;;;;;5098029;28;20190;-80
2023/01/30 04:57:38;;;;;;;11.77;5.63;;;7.30;99.90;;;;;;5102355;28;20237;-78
2023/01/30 05:00:06;;;;;;;10.57;4.87;;;7.30;99.90;;;;;;5101231;28;20656;-77
2023/01/30 05:02:35;;;;;;;14.70;5.33;;;7.30;99.90;;;;;;5100639;28;20663;-80
2023/01/30 05:05:04;;;;;;;7.67;4.93;;;7.40;99.90;;;;;;5101431;28;20217;-81
2023/01/30 05:07:31;;;;;;;10.47;4.80;;;7.30;99.90;;;;;;5100525;28;20679;-79
2023/01/30 05:09:58;;;;;;;8.23;4.60;;;7.40;99.90;;;;;;5101413;28;20185;-80
2023/01/30 05:12:25;;;;;;;14.17;5.63;;;7.40;99.90;;;;;;5103174;28;20212;-79
2023/01/30 05:14:59;;;;;;;10.93;4.90;;;7.40;99.90;;;;;;5101659;28;20202;-77
2023/01/30 05:17:28;;;;;;;8.03;5.27;;;7.40;99.90;;;;;;5102172;28;20204;-78
2023/01/30 05:19:58;;;;;;;8.10;5.17;;;7.40;99.90;;;;;;5101880;28;20208;-78
2023/01/30 05:22:26;;;;;;;8.13;5.20;;;7.40;99.90;;;;;;5100813;28;20216;-79
2023/01/30 05:24:53;;;;;;;12.05;6.25;;;7.50;99.90;;;;;;5098588;28;20460;-79
2023/01/30 05:27:21;;;;;;;12.33;5.10;;;7.30;99.90;;;;;;5100467;28;20197;-78
2023/01/30 05:29:48;;;;;;;10.13;4.83;;;7.50;99.90;;;;;;5101632;28;20723;-81
2023/01/30 05:32:15;;;;;;;6.53;4.63;;;7.40;99.90;;;;;;5102307;28;20240;-82
2023/01/30 05:34:42;;;;;;;8.73;4.40;;;7.50;99.90;;;;;;5100046;28;20216;-83
2023/01/30 05:37:12;;;;;;;10.77;5.10;;;7.50;99.90;;;;;;5100010;28;20644;-79
2023/01/30 05:39:47;;;;;;;6.97;4.63;;;7.50;99.90;;;;;;5101855;28;20185;-79
2023/01/30 05:42:14;;;;;;;7.17;4.03;;;7.50;99.90;;;;;;5099547;28;20210;-83
2023/01/30 05:44:42;;;;;;;6.87;4.43;;;7.50;99.90;;;;;;5094310;28;20671;-81
2023/01/30 05:47:09;;;;;;;9.87;4.50;;;7.60;99.90;;;;;;5101607;28;20212;-80
2023/01/30 05:49:36;;;;;;;7.57;4.93;;;7.60;99.90;;;;;;5092944;28;20273;-82
2023/01/30 05:52:04;;;;;;;7.60;4.90;;;7.60;99.90;;;;;;5095711;28;20209;-84
2023/01/30 05:54:37;;;;;;;7.77;5.37;;;7.60;99.90;;;;;;5102872;28;20284;-79
2023/01/30 05:57:07;;;;;;;10.73;4.80;;;7.60;99.90;;;;;;5101237;28;20208;-80
2023/01/30 05:59:35;;;;;;;15.30;5.23;;;7.60;99.90;;;;;;5098058;28;20220;-79
2023/01/30 06:02:02;;;;;;;15.10;5.03;;;7.70;99.90;;;;;;5098479;28;20204;-78
2023/01/30 06:04:30;;;;;;;12.53;5.17;;;7.70;99.90;;;;;;5099012;28;20196;-81
2023/01/30 06:06:57;;;;;;;9.87;5.13;;;7.80;99.90;;;;;;5101436;28;20220;-80
2023/01/30 06:09:26;;;;;;;5.33;4.77;;;7.90;99.90;;;;;;5102061;28;20203;-80
2023/01/30 06:11:54;;;;;;;13.33;6.10;;;7.80;99.90;;;;;;5099217;28;20675;-77
2023/01/30 06:14:29;;;;;;;15.13;5.73;;;7.90;99.90;;;;;;5099509;28;20234;-79
2023/01/30 06:16:57;;;;;;;6.90;4.73;;;7.90;99.90;;;;;;5101274;28;20196;-80
2023/01/30 06:19:24;;;;;;;8.30;5.40;;;8.00;99.90;;;;;;5098211;28;20192;-80
2023/01/30 06:21:52;;;;;;;10.33;5.00;;;7.90;99.90;;;;;;5099892;28;20660;-80
2023/01/30 06:24:19;;;;;;;9.32;6.13;;;8.00;99.90;;;;;;5098455;28;20458;-82
2023/01/30 06:26:46;;;;;;;7.00;5.17;;;8.10;99.90;;;;;;5098844;28;20323;-80
2023/01/30 06:29:18;;;;;;;8.73;5.00;;;8.10;99.90;;;;;;5098861;28;20189;-80
2023/01/30 06:31:45;;;;;;;8.93;5.57;;;8.20;99.90;;;;;;5100358;28;20213;-79
2023/01/30 06:34:12;;;;;;;8.93;5.23;;;8.20;99.90;;;;;;5097494;28;20201;-79
2023/01/30 06:36:39;;;;;;;7.03;5.13;;;8.20;99.90;;;;;;5097640;28;20196;-79
2023/01/30 06:39:07;;;;;;;12.90;4.97;;;8.20;99.90;;;;;;5097946;28;20197;-79
2023/01/30 06:41:34;;;;;;;11.90;5.20;;;8.20;99.90;;;;;;5101637;28;20201;-83
2023/01/30 06:44:00;;;;;;;10.00;4.80;;;8.30;99.90;;;;;;5102046;28;20204;-81
2023/01/30 06:46:29;;;;;;;11.60;5.77;;;8.10;99.90;;;;;;5100479;28;20228;-79
2023/01/30 06:48:57;;;;;;;10.03;5.27;;;8.20;99.90;;;;;;5100673;28;20207;-80
2023/01/30 06:51:26;;;;;;;9.07;4.57;;;8.20;99.90;;;;;;5102083;28;20233;-81
2023/01/30 06:53:53;;;;;;;8.83;4.73;;;8.20;99.90;;;;;;5100434;28;20295;-81
2023/01/30 06:56:20;;;;;;;8.80;4.17;;;8.20;99.90;;;;;;5100363;28;20223;-80
2023/01/30 06:58:49;;;;;;;8.77;4.43;;;8.30;99.90;;;;;;5099198;28;20277;-78
2023/01/30 07:01:17;;;;;;;10.33;4.73;;;8.30;99.90;;;;;;5099752;28;20211;-78
2023/01/30 07:03:48;;;;;;;12.57;4.70;;;8.40;99.90;;;;;;5100258;28;20189;-79
2023/01/30 07:06:16;;;;;;;8.77;4.17;;;8.40;99.90;;;;;;5100021;28;20707;-81
2023/01/30 07:08:43;;;;;;;9.00;3.93;;;8.30;99.90;;;;;;5099059;28;20201;-78
2023/01/30 07:11:10;;;;;;;14.27;3.97;;;8.20;99.90;;;;;;5098894;28;20717;-78
2023/01/30 07:13:40;;;;;;;8.73;3.90;;;8.20;99.90;;;;;;5099498;28;20569;-80
2023/01/30 07:16:08;;;;;;;10.00;3.57;;;8.20;99.90;;;;;;5100318;28;20216;-80
2023/01/30 07:18:34;;;;;;;8.57;4.03;;;8.40;99.90;;;;;;5100005;28;20202;-78
2023/01/30 07:21:05;;;;;;;7.13;3.73;;;8.40;99.90;;;;;;5087283;28;20193;-82
2023/01/30 07:23:32;;;;;;;9.17;3.33;;;8.40;99.90;;;;;;5088467;28;20190;-80
2023/01/30 07:25:59;;;;;;;12.50;5.78;;;8.30;99.90;;;;;;5077413;28;20452;-82
2023/01/30 07:28:27;;;;;;;9.50;4.07;;;8.30;99.90;;;;;;5080379;28;20296;-79
2023/01/30 07:30:54;;;;;;;10.87;3.10;;;8.20;99.90;;;;;;5080913;28;20229;-79
2023/01/30 07:33:21;;;;;;;8.30;3.10;;;8.20;99.90;;;;;;5078079;28;20205;-79
2023/01/30 07:35:52;;;;;;;12.10;3.47;;;8.20;99.90;;;;;;5081143;28;20220;-77
2023/01/30 07:38:21;;;;;;;16.83;3.47;;;8.20;99.90;;;;;;5091037;28;20227;-81
2023/01/30 07:40:48;;;;;;;13.90;3.63;;;8.10;99.90;;;;;;5100182;28;20201;-81
2023/01/30 07:43:17;;;;;;;11.27;3.90;;;8.10;99.90;;;;;;5103566;28;20232;-78
2023/01/30 07:45:45;;;;;;;8.63;3.43;;;8.00;99.90;;;;;;5100570;28;20225;-80
2023/01/30 07:48:14;;;;;;;10.50;4.20;;;8.10;99.90;;;;;;5103376;28;20209;-83
2023/01/30 07:50:41;;;;;;;11.50;3.67;;;8.10;99.90;;;;;;5100824;28;20208;-82
2023/01/30 07:53:11;;;;;;;13.57;4.07;;;8.00;99.90;;;;;;5098989;28;20200;-80
2023/01/30 07:55:40;;;;;;;11.03;3.27;;;7.80;99.90;;;;;;5099019;28;20185;-83
2023/01/30 07:58:07;;;;;;;10.80;3.23;;;7.90;99.90;;;;;;5098684;28;20193;-80
2023/01/30 08:00:34;;;;;;;8.60;3.27;;;7.90;99.90;;;;;;5099839;28;20573;-77
2023/01/30 08:03:01;;;;;;;9.40;2.87;;;7.80;99.90;;;;;;5098131;28;20193;-79
2023/01/30 08:05:28;;;;;;;8.20;3.13;;;7.80;99.90;;;;;;5099147;28;20227;-77
2023/01/30 08:07:55;;;;;;;11.17;2.90;;;7.70;99.90;;;;;;5098927;28;20208;-82
2023/01/30 08:10:22;;;;;;;6.63;2.37;;;7.70;99.90;;;;;;5099931;28;20201;-84
2023/01/30 08:12:51;;;;;;;12.03;3.20;;;7.80;99.90;;;;;;5097017;28;20189;-85
2023/01/30 08:15:18;;;;;;;8.90;2.83;;;7.80;99.90;;;;;;5097629;28;20207;-84
2023/01/30 08:17:45;;;;;;;8.23;2.27;;;7.70;99.90;;;;;;5100624;28;20223;-84
2023/01/30 08:20:15;;;;;;;6.07;2.53;;;7.80;99.90;;;;;;5098059;28;20193;-90
2023/01/30 08:22:44;;;;;;;8.67;2.10;;;7.70;99.90;;;;;;5099926;28;20235;-84
2023/01/30 08:25:11;;;;;;;11.73;2.50;;;7.70;99.90;;;;;;5098342;28;20213;-83
2023/01/30 08:27:38;;;;;;;7.07;2.57;;;7.70;99.90;;;;;;5097739;28;20208;-78
2023/01/30 08:30:12;;;;;;;8.67;2.53;;;7.80;99.90;;;;;;5098512;28;20201;-78
2023/01/30 08:32:39;;;;;;;12.30;1.87;;;7.80;99.90;;;;;;5102674;28;20216;-78
2023/01/30 08:35:08;;;;;;;9.27;2.60;;;7.80;99.90;;;;;;5100549;28;20224;-80
2023/01/30 08:37:35;;;;;;;9.07;2.70;;;7.80;99.90;;;;;;5101028;28;20201;-78
2023/01/30 08:40:04;;;;;;;7.27;2.30;;;7.80;99.90;;;;;;5100099;28;20205;-80
2023/01/30 08:42:30;;;;;;;7.40;2.50;;;7.70;99.90;;;;;;5100533;28;20235;-78
2023/01/30 08:44:58;;;;;;;7.20;2.00;;;7.70;99.90;;;;;;5098383;28;20217;-78
2023/01/30 08:47:26;;;;;;;16.60;2.80;;;7.90;99.90;;;;;;5102984;28;20598;-80
2023/01/30 08:49:53;;;;;;;9.87;2.70;;;7.70;99.90;;;;;;5096466;28;20211;-81
2023/01/30 08:52:20;;;;;;;8.77;2.30;;;7.80;99.90;;;;;;5100763;28;20584;-82
2023/01/30 08:54:47;;;;;;;12.03;3.13;;;7.80;99.90;;;;;;5099311;28;20209;-79
2023/01/30 08:57:15;;;;;;;9.80;2.77;;;7.80;99.90;;;;;;5099226;28;20629;-79
2023/01/30 08:59:42;;;;;;;11.90;2.30;;;7.80;99.90;;;;;;5099617;28;20185;-80
2023/01/30 09:02:10;;;;;;;9.57;2.70;;;7.90;99.90;;;;;;5096617;28;20669;-83
2023/01/30 09:04:43;;;;;;;8.10;3.00;;;7.90;99.90;;;;;;5094476;28;20217;-82
2023/01/30 09:07:12;;;;;;;10.90;2.47;;;7.90;99.90;;;;;;5101850;28;20232;-87
2023/01/30 09:09:39;;;;;;;9.17;2.93;;;7.80;99.90;;;;;;5099167;28;20201;-86
2023/01/30 09:12:06;;;;;;;15.70;2.80;;;7.90;99.90;;;;;;5099146;28;20209;-87
2023/01/30 09:14:37;;;;;;;9.17;3.03;;;7.90;99.90;;;;;;5098052;28;20201;-92
2023/01/30 09:17:05;;;;;;;13.17;2.53;;;7.90;99.90;;;;;;5101660;28;20216;-92
2023/01/30 09:19:35;;;;;;;6.23;1.83;;;7.80;99.90;;;;;;5095540;28;20280;-86
2023/01/30 09:22:07;;;;;;;13.47;3.20;;;7.90;99.90;;;;;;5089497;28;20193;-88
2023/01/30 09:24:34;;;;;;;10.40;2.33;;;8.00;99.90;;;;;;5092392;28;20196;-81
2023/01/30 09:27:01;;;;;;;16.27;3.20;;;8.10;99.90;;;;;;5083919;28;20704;-83
2023/01/30 09:29:28;;;;;;;16.20;3.10;;;8.00;99.90;;;;;;5085107;28;20593;-83
2023/01/30 09:31:56;;;;;;;10.20;2.57;;;8.10;99.90;;;;;;5088555;28;20213;-81
2023/01/30 09:34:26;;;;;;;9.63;2.57;;;8.10;99.90;;;;;;5095802;28;20653;-82
2023/01/30 09:36:53;;;;;;;16.57;2.80;;;8.10;99.90;;;;;;5085013;28;20196;-83
2023/01/30 09:39:21;;;;;;;10.30;2.70;;;8.10;99.90;;;;;;5087768;28;20193;-81
2023/01/30 09:42:13;;;;;;;13.67;2.40;;;8.10;99.90;;;;;;5086508;28;20231;-80
2023/01/30 09:44:55;;;;;;;12.00;2.93;;;8.10;99.90;;;;;;5091639;28;20585;-80
2023/01/30 09:47:32;;;;;;;12.30;2.80;;;8.10;99.90;;;;;;5089380;28;20212;-83
2023/01/30 09:50:12;;;;;;;11.53;2.90;;;8.10;99.90;;;;;;5089397;28;20201;-82
2023/01/30 09:52:51;;;;;;;15.97;2.73;;;8.10;99.90;;;;;;5089795;28;20197;-89
2023/01/30 09:55:25;;;;;;;15.73;3.40;;;8.20;99.90;;;;;;5086191;28;20190;-87
2023/01/30 09:58:00;;;;;;;11.83;3.03;;;8.30;99.90;;;;;;5100769;28;20224;-89
2023/01/30 10:00:36;;;;;;;9.87;1.93;;;8.30;99.90;;;;;;5103722;28;20307;-86
2023/01/30 10:03:10;;;;;;;10.23;2.63;;;8.40;99.90;;;;;;5108069;28;20188;-83
2023/01/30 10:05:42;;;;;;;13.67;2.53;;;8.30;99.90;;;;;;5096713;28;20200;-83
2023/01/30 10:08:40;;;;;;;11.23;3.13;;;8.30;99.90;;;;;;5099408;28;20207;-85
2023/01/30 10:11:27;;;;;;;13.47;3.07;;;8.30;99.90;;;;;;5096901;28;20201;-83
2023/01/30 10:14:16;;;;;;;16.87;3.00;;;8.40;99.90;;;;;;5100631;28;20220;-83
2023/01/30 10:16:52;;;;;;;14.67;3.40;;;8.40;99.90;;;;;;5095576;28;20205;-87
2023/01/30 10:19:48;;;;;;;13.80;3.03;;;8.50;99.90;;;;;;5099929;28;20223;-88
2023/01/30 10:22:27;;;;;;;13.43;3.00;;;8.40;99.90;;;;;;5097423;28;20729;-85
2023/01/30 10:25:04;;;;;;;12.37;3.20;;;8.60;99.90;;;;;;5095201;28;20573;-84
2023/01/30 10:27:33;;;;;;;11.67;2.57;;;8.60;99.90;;;;;;5098503;28;20236;-84
2023/01/30 10:30:03;;;;;;;10.93;3.17;;;8.60;99.90;;;;;;5099807;28;20203;-81
2023/01/30 10:32:33;;;;;;;8.80;2.50;;;8.50;99.90;;;;;;5098939;28;20220;-83
2023/01/30 10:35:06;;;;;;;15.83;3.17;;;8.60;99.90;;;;;;5100362;28;20193;-83
2023/01/30 10:37:39;;;;;;;11.33;2.63;;;8.60;99.90;;;;;;5099640;28;20231;-79
2023/01/30 10:40:18;;;;;;;11.67;2.83;;;8.70;99.90;;;;;;5096883;28;20196;-82
2023/01/30 10:42:53;;;;;;;10.57;2.53;;;8.70;99.90;;;;;;5098030;28;20212;-83
2023/01/30 10:45:27;;;;;;;10.20;2.63;;;8.70;99.90;;;;;;5096160;28;20225;-86
2023/01/30 10:48:06;;;;;;;8.57;2.20;;;8.80;99.90;;;;;;5097550;28;20225;-88
2023/01/30 10:50:44;;;;;;;18.17;2.97;;;8.90;99.90;;;;;;5094236;28;20185;-83
2023/01/30 10:53:17;;;;;;;9.03;2.60;;;8.90;99.90;;;;;;5095432;28;20196;-88
2023/01/30 10:55:48;;;;;;;15.90;3.07;;;9.00;99.90;;;;;;5095037;28;20652;-87
2023/01/30 10:58:25;;;;;;;8.50;1.93;;;9.00;99.90;;;;;;5096410;28;20201;-89
2023/01/30 11:00:59;;;;;;;13.77;2.90;;;9.00;99.90;;;;;;5097888;28;20211;-89
2023/01/30 11:03:36;;;;;;;9.20;2.67;;;9.10;99.90;;;;;;5099065;28;20205;-87
2023/01/30 11:06:07;;;;;;;13.40;2.77;;;9.00;99.90;;;;;;5097881;28;20185;-82
2023/01/30 11:08:42;;;;;;;9.47;2.23;;;9.00;99.90;;;;;;5097891;28;20197;-87
2023/01/30 11:11:29;;;;;;;9.77;2.40;;;9.10;99.90;;;;;;5096892;28;20201;-81
2023/01/30 11:14:05;;;;;;;10.97;2.00;;;9.10;99.90;;;;;;5098642;28;20204;-87
2023/01/30 11:16:37;;;;;;;6.50;1.83;;;9.00;99.90;;;;;;5095717;28;20197;-89
2023/01/30 11:19:06;;;;;;;10.77;1.90;;;9.00;99.90;;;;;;5096421;28;20189;-90
2023/01/30 11:21:33;;;;;;;7.83;2.43;;;9.00;99.90;;;;;;5093543;28;20656;-88
2023/01/30 11:24:05;;;;;;;12.53;2.90;;;8.90;99.90;;;;;;5097220;28;20202;-90
2023/01/30 11:26:36;;;;;;;9.43;2.97;;;8.90;99.90;;;;;;5101225;28;20282;-87
2023/01/30 11:29:25;;;;;;;12.57;2.63;;;8.90;99.90;;;;;;5101151;28;20218;-85
2023/01/30 11:31:53;;;;;;;10.97;2.37;;;9.00;99.90;;;;;;5100219;28;20215;-90
2023/01/30 11:34:22;;;;;;;9.60;3.10;;;9.00;99.90;;;;;;5080455;28;20206;-88
2023/01/30 11:36:51;;;;;;;9.50;2.63;;;9.10;99.90;;;;;;5098871;28;20296;-88
2023/01/30 11:39:24;;;;;;;10.00;2.67;;;9.20;99.90;;;;;;5100008;28;20276;-90
2023/01/30 11:42:00;;;;;;;12.73;2.23;;;9.10;99.90;;;;;;5098790;28;20219;-88
2023/01/30 11:44:33;;;;;;;12.77;2.37;;;9.20;99.90;;;;;;5082622;28;20263;-88
2023/01/30 11:47:03;;;;;;;12.47;2.50;;;9.10;99.90;;;;;;5081941;28;20759;-88
2023/01/30 11:49:38;;;;;;;10.23;2.50;;;9.00;99.90;;;;;;5081546;28;20194;-88
2023/01/30 11:52:07;;;;;;;11.77;2.77;;;9.00;99.90;;;;;;5082627;28;20200;-90
2023/01/30 11:54:38;;;;;;;11.83;2.43;;;9.00;99.90;;;;;;5079861;28;20212;-87
2023/01/30 11:57:11;;;;;;;13.70;2.50;;;9.00;99.90;;;;;;5079935;28;20190;-89
2023/01/30 11:59:44;;;;;;;15.57;3.33;;;9.10;99.90;;;;;;5083448;28;20202;-88
2023/01/30 12:02:18;;;;;;;11.77;2.63;;;9.10;99.90;;;;;;5081871;28;20208;-88
2023/01/30 12:04:45;;;;;;;13.40;2.27;;;9.10;99.90;;;;;;5077935;28;20205;-90
2023/01/30 12:07:19;;;;;;;7.00;2.77;;;9.20;99.90;;;;;;5080760;28;20229;-90
2023/01/30 12:09:49;;;;;;;11.50;2.60;;;9.10;99.90;;;;;;5080232;28;20194;-86
2023/01/30 12:12:34;;;;;;;8.23;2.60;;;9.00;99.90;;;;;;5083336;28;20212;-88
2023/01/30 12:15:17;;;;;;;10.80;3.00;;;9.10;99.90;;;;;;5082733;28;20616;-87
2023/01/30 12:17:49;;;;;;;8.93;2.13;;;9.10;99.90;;;;;;5081574;28;20208;-88
2023/01/30 12:20:25;;;;;;;12.80;3.33;;;9.10;99.90;;;;;;5083069;28;20194;-87
2023/01/30 12:23:01;;;;;;;8.97;2.83;;;9.10;99.90;;;;;;5091685;28;20569;-85
2023/01/30 12:25:35;;;;;;;14.70;2.80;;;9.10;99.90;;;;;;5081923;28;20220;-87
2023/01/30 12:28:04;;;;;;;9.37;2.50;;;9.10;99.90;;;;;;5079135;28;20233;-85
2023/01/30 12:30:37;;;;;;;15.07;2.73;;;9.20;99.90;;;;;;5079650;28;20205;-86
2023/01/30 12:33:06;;;;;;;13.63;4.00;;;9.10;99.90;;;;;;5079958;28;20209;-86
2023/01/30 12:35:52;;;;;;;12.50;2.40;;;9.20;99.90;;;;;;5081815;28;20198;-87
2023/01/30 12:38:35;;;;;;;10.53;2.93;;;9.00;99.90;;;;;;5078261;28;20236;-86
2023/01/30 12:41:16;;;;;;;11.93;2.97;;;9.00;99.90;;;;;;5077932;28;20210;-86
2023/01/30 12:43:59;;;;;;;10.97;2.80;;;9.10;99.90;;;;;;5079972;28;20205;-86
2023/01/30 12:46:46;;;;;;;11.33;2.23;;;9.10;99.90;;;;;;5086708;28;20220;-89
2023/01/30 12:49:34;;;;;;;10.87;2.70;;;8.90;99.90;;;;;;5091226;28;20193;-87
2023/01/30 12:52:26;;;;;;;17.43;3.93;;;8.90;99.90;;;;;;5098726;28;20205;-85
2023/01/30 12:54:59;;;;;;;8.07;2.37;;;9.00;99.90;;;;;;5100487;28;20261;-90
2023/01/30 12:57:34;;;;;;;15.33;3.20;;;9.10;99.90;;;;;;5088649;28;20209;-87
2023/01/30 13:00:24;;;;;;;13.40;3.00;;;9.00;99.90;;;;;;5080183;28;20569;-87
2023/01/30 13:03:10;;;;;;;12.80;2.80;;;9.00;99.90;;;;;;5085078;28;20205;-88
2023/01/30 13:05:45;;;;;;;6.63;2.57;;;9.10;99.90;;;;;;5085552;28;20197;-87
2023/01/30 13:08:44;;;;;;;7.83;1.70;;;9.10;99.90;;;;;;5093698;28;20578;-92
2023/01/30 13:11:29;;;;;;;11.43;2.40;;;9.20;99.90;;;;;;5084490;28;20197;-88
2023/01/30 13:14:06;;;;;;;16.77;2.97;;;9.40;99.90;;;;;;5083538;28;20292;-88
2023/01/30 13:16:36;;;;;;;14.17;2.60;;;9.40;99.90;;;;;;5098957;28;20197;-86